sensor_id;sensor_type;location;lat;lon;timestamp;pressure;altitude;pressure_sealevel;temperature;humidity
57000;BME280;42891;50.006;21.964;2023-01-31T00:02:55;97980.25;;;0.43;100.00
57000;BME280;42891;50.006;21.964;2023-01-31T00:06:55;97970.56;;;0.45;100.00
57000;BME280;42891;50.006;21.964;2023-01-31T00:10:58;97974.03;;;0.31;100.00
57000;BME280;42891;50.006;21.964;2023-01-31T00:14:58;97990.09;;;0.38;100.00
57000;BME280;42891;50.006;21.964;2023-01-31T00:18:59;97985.72;;;0.39;100.00
57000;BME280;42891;50.006;21.964;2023-01-31T00:23:00;98000.66;;;0.35;100.00
57000;BME280;42891;50.006;21.964;2023-01-31T00:27:00;98002.66;;;0.44;100.00
57000;BME280;42891;50.006;21.964;2023-01-31T00:31:00;97999.28;;;0.29;100.00
57000;BME280;42891;50.006;21.964;2023-01-31T00:35:01;98012.78;;;0.49;100.00
57000;BME280;42891;50.006;21.964;2023-01-31T00:39:03;98021.25;;;0.38;100.00
57000;BME280;42891;50.006;21.964;2023-01-31T00:43:03;98009.28;;;0.36;100.00
57000;BME280;42891;50.006;21.964;2023-01-31T00:47:03;98030.66;;;0.54;100.00
57000;BME280;42891;50.006;21.964;2023-01-31T00:51:04;98027.88;;;0.57;100.00
57000;BME280;42891;50.006;21.964;2023-01-31T00:55:04;98039.22;;;0.56;100.00
57000;BME280;42891;50.006;21.964;2023-01-31T00:59:05;98019.38;;;0.40;100.00
57000;BME280;42891;50.006;21.964;2023-01-31T01:03:07;98017.03;;;0.50;100.00
57000;BME280;42891;50.006;21.964;2023-01-31T01:07:07;98035.44;;;0.74;100.00
57000;BME280;42891;50.006;21.964;2023-01-31T01:11:13;98045.84;;;0.74;100.00
57000;BME280;42891;50.006;21.964;2023-01-31T01:15:13;98042.00;;;0.80;100.00
57000;BME280;42891;50.006;21.964;2023-01-31T01:19:16;98072.16;;;0.82;100.00
57000;BME280;42891;50.006;21.964;2023-01-31T01:23:17;98066.03;;;0.83;100.00
57000;BME280;42891;50.006;21.964;2023-01-31T01:27:17;98066.47;;;0.90;100.00
57000;BME280;42891;50.006;21.964;2023-01-31T01:31:18;98070.19;;;0.86;100.00
57000;BME280;42891;50.006;21.964;2023-01-31T01:35:19;98059.06;;;0.84;100.00
57000;BME280;42891;50.006;21.964;2023-01-31T01:39:20;98062.66;;;0.96;100.00
57000;BME280;42891;50.006;21.964;2023-01-31T01:43:20;98069.25;;;0.87;100.00
57000;BME280;42891;50.006;21.964;2023-01-31T01:47:41;98072.84;;;0.99;100.00
57000;BME280;42891;50.006;21.964;2023-01-31T01:51:45;98066.09;;;0.96;100.00
57000;BME280;42891;50.006;21.964;2023-01-31T01:55:55;98059.16;;;0.82;100.00
57000;BME280;42891;50.006;21.964;2023-01-31T02:00:09;98072.00;;;0.98;100.00
57000;BME280;42891;50.006;21.964;2023-01-31T02:04:16;98082.84;;;1.05;100.00
57000;BME280;42891;50.006;21.964;2023-01-31T02:08:22;98070.97;;;1.01;100.00
57000;BME280;42891;50.006;21.964;2023-01-31T02:12:24;98069.75;;;1.07;100.00
57000;BME280;42891;50.006;21.964;2023-01-31T02:16:25;98081.97;;;0.92;100.00
57000;BME280;42891;50.006;21.964;2023-01-31T02:42:29;98091.06;;;0.99;100.00
57000;BME280;42891;50.006;21.964;2023-01-31T02:46:44;98106.38;;;1.16;100.00
57000;BME280;42891;50.006;21.964;2023-01-31T02:51:04;98086.91;;;1.09;100.00
57000;BME280;42891;50.006;21.964;2023-01-31T02:55:09;98084.63;;;1.05;100.00
57000;BME280;42891;50.006;21.964;2023-01-31T02:59:30;98080.84;;;0.96;100.00
57000;BME280;42891;50.006;21.964;2023-01-31T03:03:33;98108.06;;;1.17;100.00
57000;BME280;42891;50.006;21.964;2023-01-31T03:07:36;98114.00;;;1.19;100.00
57000;BME280;42891;50.006;21.964;2023-01-31T03:11:52;98116.41;;;1.23;100.00
57000;BME280;42891;50.006;21.964;2023-01-31T03:16:17;98122.75;;;1.18;100.00
57000;BME280;42891;50.006;21.964;2023-01-31T03:20:43;98125.72;;;1.12;99.96
57000;BME280;42891;50.006;21.964;2023-01-31T03:24:46;98119.59;;;1.13;100.00
57000;BME280;42891;50.006;21.964;2023-01-31T03:28:51;98144.50;;;1.30;100.00
57000;BME280;42891;50.006;21.964;2023-01-31T03:33:22;98136.06;;;0.99;100.00
57000;BME280;42891;50.006;21.964;2023-01-31T03:37:31;98154.97;;;1.16;100.00
57000;BME280;42891;50.006;21.964;2023-01-31T03:41:52;98176.34;;;1.07;100.00
57000;BME280;42891;50.006;21.964;2023-01-31T03:46:14;98177.38;;;1.04;100.00
57000;BME280;42891;50.006;21.964;2023-01-31T03:50:19;98169.97;;;0.98;100.00
57000;BME280;42891;50.006;21.964;2023-01-31T03:54:24;98162.47;;;0.79;100.00
57000;BME280;42891;50.006;21.964;2023-01-31T03:58:29;98191.31;;;0.89;100.00
57000;BME280;42891;50.006;21.964;2023-01-31T04:02:34;98194.78;;;0.89;100.00
57000;BME280;42891;50.006;21.964;2023-01-31T04:06:34;98186.81;;;0.78;100.00
57000;BME280;42891;50.006;21.964;2023-01-31T04:10:35;98214.72;;;0.89;100.00
57000;BME280;42891;50.006;21.964;2023-01-31T04:14:35;98215.47;;;0.91;100.00
57000;BME280;42891;50.006;21.964;2023-01-31T04:18:36;98217.13;;;1.06;100.00
57000;BME280;42891;50.006;21.964;2023-01-31T04:22:36;98205.22;;;1.02;100.00
57000;BME280;42891;50.006;21.964;2023-01-31T04:26:36;98218.41;;;1.13;100.00
57000;BME280;42891;50.006;21.964;2023-01-31T04:30:37;98215.19;;;1.10;100.00
57000;BME280;42891;50.006;21.964;2023-01-31T04:34:37;98215.91;;;1.12;100.00
57000;BME280;42891;50.006;21.964;2023-01-31T04:38:37;98237.25;;;1.17;100.00
57000;BME280;42891;50.006;21.964;2023-01-31T04:42:37;98243.75;;;1.24;100.00
57000;BME280;42891;50.006;21.964;2023-01-31T04:46:38;98245.25;;;1.14;100.00
57000;BME280;42891;50.006;21.964;2023-01-31T04:50:38;98253.97;;;1.13;100.00
57000;BME280;42891;50.006;21.964;2023-01-31T04:54:38;98262.16;;;0.92;100.00
57000;BME280;42891;50.006;21.964;2023-01-31T04:58:39;98266.16;;;0.98;100.00
57000;BME280;42891;50.006;21.964;2023-01-31T05:02:40;98250.19;;;0.90;100.00
57000;BME280;42891;50.006;21.964;2023-01-31T05:06:40;98252.94;;;1.01;100.00
57000;BME280;42891;50.006;21.964;2023-01-31T05:10:41;98259.38;;;0.81;100.00
57000;BME280;42891;50.006;21.964;2023-01-31T05:14:42;98242.66;;;0.85;100.00
57000;BME280;42891;50.006;21.964;2023-01-31T05:18:42;98250.44;;;0.71;100.00
57000;BME280;42891;50.006;21.964;2023-01-31T05:22:46;98279.97;;;0.98;100.00
57000;BME280;42891;50.006;21.964;2023-01-31T05:26:46;98292.97;;;1.13;100.00
57000;BME280;42891;50.006;21.964;2023-01-31T05:30:46;98291.41;;;1.10;100.00
57000;BME280;42891;50.006;21.964;2023-01-31T05:34:47;98295.84;;;1.23;100.00
57000;BME280;42891;50.006;21.964;2023-01-31T05:38:47;98304.28;;;1.26;100.00
57000;BME280;42891;50.006;21.964;2023-01-31T05:42:58;98295.94;;;1.07;100.00
57000;BME280;42891;50.006;21.964;2023-01-31T05:47:01;98315.38;;;1.15;100.00
57000;BME280;42891;50.006;21.964;2023-01-31T05:51:01;98326.88;;;1.11;100.00
57000;BME280;42891;50.006;21.964;2023-01-31T05:55:01;98336.25;;;1.14;100.00
57000;BME280;42891;50.006;21.964;2023-01-31T05:59:02;98321.19;;;0.90;100.00
57000;BME280;42891;50.006;21.964;2023-01-31T06:03:02;98335.22;;;1.02;100.00
57000;BME280;42891;50.006;21.964;2023-01-31T06:07:03;98351.00;;;1.13;100.00
57000;BME280;42891;50.006;21.964;2023-01-31T06:11:04;98360.31;;;1.03;100.00
57000;BME280;42891;50.006;21.964;2023-01-31T06:15:05;98369.75;;;1.04;100.00
57000;BME280;42891;50.006;21.964;2023-01-31T06:19:05;98364.50;;;1.06;100.00
57000;BME280;42891;50.006;21.964;2023-01-31T06:23:06;98369.94;;;1.01;100.00
57000;BME280;42891;50.006;21.964;2023-01-31T06:27:06;98380.34;;;1.01;100.00
57000;BME280;42891;50.006;21.964;2023-01-31T06:31:07;98390.00;;;0.99;100.00
57000;BME280;42891;50.006;21.964;2023-01-31T06:35:08;98392.72;;;1.12;99.88
57000;BME280;42891;50.006;21.964;2023-01-31T06:39:10;98413.59;;;1.25;99.68
57000;BME280;42891;50.006;21.964;2023-01-31T06:43:10;98410.09;;;1.26;98.88
57000;BME280;42891;50.006;21.964;2023-01-31T06:47:11;98419.56;;;1.27;98.71
57000;BME280;42891;50.006;21.964;2023-01-31T06:51:12;98420.50;;;1.11;97.77
57000;BME280;42891;50.006;21.964;2023-01-31T06:55:12;98419.47;;;1.14;98.12
57000;BME280;42891;50.006;21.964;2023-01-31T06:59:12;98432.63;;;1.11;98.76
57000;BME280;42891;50.006;21.964;2023-01-31T07:03:13;98441.44;;;1.08;98.05
57000;BME280;42891;50.006;21.964;2023-01-31T07:07:13;98440.00;;;1.18;97.01
57000;BME280;42891;50.006;21.964;2023-01-31T07:11:14;98453.47;;;1.25;97.36
57000;BME280;42891;50.006;21.964;2023-01-31T07:15:35;98464.38;;;1.32;97.53
57000;BME280;42891;50.006;21.964;2023-01-31T07:19:36;98457.53;;;1.15;97.21
57000;BME280;42891;50.006;21.964;2023-01-31T07:23:36;98476.97;;;1.24;97.96
57000;BME280;42891;50.006;21.964;2023-01-31T07:27:36;98482.28;;;1.36;97.78
57000;BME280;42891;50.006;21.964;2023-01-31T07:31:37;98490.22;;;1.19;98.69
57000;BME280;42891;50.006;21.964;2023-01-31T07:35:38;98487.38;;;1.24;99.17
57000;BME280;42891;50.006;21.964;2023-01-31T07:39:40;98491.09;;;1.19;99.39
57000;BME280;42891;50.006;21.964;2023-01-31T07:43:40;98496.75;;;1.26;99.52
57000;BME280;42891;50.006;21.964;2023-01-31T07:47:40;98479.94;;;0.87;100.00
57000;BME280;42891;50.006;21.964;2023-01-31T07:51:42;98515.81;;;0.96;100.00
57000;BME280;42891;50.006;21.964;2023-01-31T07:55:42;98522.69;;;0.81;100.00
57000;BME280;42891;50.006;21.964;2023-01-31T07:59:46;98535.03;;;0.78;100.00
57000;BME280;42891;50.006;21.964;2023-01-31T08:03:47;98541.16;;;0.77;100.00
57000;BME280;42891;50.006;21.964;2023-01-31T08:07:47;98543.34;;;0.68;100.00
57000;BME280;42891;50.006;21.964;2023-01-31T08:12:07;98552.97;;;0.82;100.00
57000;BME280;42891;50.006;21.964;2023-01-31T08:16:10;98542.50;;;0.84;100.00
57000;BME280;42891;50.006;21.964;2023-01-31T08:20:10;98559.69;;;0.87;100.00
57000;BME280;42891;50.006;21.964;2023-01-31T08:24:11;98548.50;;;0.84;100.00
57000;BME280;42891;50.006;21.964;2023-01-31T08:28:11;98563.78;;;0.75;100.00
57000;BME280;42891;50.006;21.964;2023-01-31T08:32:11;98585.16;;;0.80;100.00
57000;BME280;42891;50.006;21.964;2023-01-31T08:36:16;98563.59;;;0.94;100.00
57000;BME280;42891;50.006;21.964;2023-01-31T08:40:16;98556.72;;;0.93;100.00
57000;BME280;42891;50.006;21.964;2023-01-31T08:44:17;98575.09;;;1.06;100.00
57000;BME280;42891;50.006;21.964;2023-01-31T08:48:17;98561.00;;;1.10;100.00
57000;BME280;42891;50.006;21.964;2023-01-31T08:52:17;98583.94;;;1.33;100.00
57000;BME280;42891;50.006;21.964;2023-01-31T08:56:17;98584.66;;;1.35;100.00
57000;BME280;42891;50.006;21.964;2023-01-31T09:00:20;98594.25;;;1.35;100.00
57000;BME280;42891;50.006;21.964;2023-01-31T09:04:21;98578.03;;;1.46;99.59
57000;BME280;42891;50.006;21.964;2023-01-31T09:08:21;98577.03;;;1.32;98.12
57000;BME280;42891;50.006;21.964;2023-01-31T09:12:21;98588.44;;;1.46;98.72
57000;BME280;42891;50.006;21.964;2023-01-31T09:16:21;98601.84;;;1.68;97.78
57000;BME280;42891;50.006;21.964;2023-01-31T09:20:22;98600.06;;;1.69;96.91
57000;BME280;42891;50.006;21.964;2023-01-31T09:24:22;98602.69;;;1.69;96.32
57000;BME280;42891;50.006;21.964;2023-01-31T09:28:23;98621.78;;;1.84;95.51
57000;BME280;42891;50.006;21.964;2023-01-31T09:32:24;98621.66;;;1.71;95.82
57000;BME280;42891;50.006;21.964;2023-01-31T09:36:24;98626.28;;;1.66;95.45
57000;BME280;42891;50.006;21.964;2023-01-31T09:40:27;98628.28;;;1.77;95.07
57000;BME280;42891;50.006;21.964;2023-01-31T09:44:37;98642.97;;;1.78;94.76
57000;BME280;42891;50.006;21.964;2023-01-31T09:48:42;98639.66;;;1.60;95.16
57000;BME280;42891;50.006;21.964;2023-01-31T09:52:43;98618.75;;;1.61;94.64
57000;BME280;42891;50.006;21.964;2023-01-31T09:57:02;98617.91;;;1.61;94.39
57000;BME280;42891;50.006;21.964;2023-01-31T10:09:33;98619.69;;;1.60;94.04
57000;BME280;42891;50.006;21.964;2023-01-31T10:13:47;98633.38;;;1.78;93.48
57000;BME280;42891;50.006;21.964;2023-01-31T10:17:57;98629.50;;;1.85;92.68
57000;BME280;42891;50.006;21.964;2023-01-31T10:22:04;98621.50;;;1.88;92.50
57000;BME280;42891;50.006;21.964;2023-01-31T10:26:11;98621.16;;;1.95;92.04
57000;BME280;42891;50.006;21.964;2023-01-31T10:30:24;98604.13;;;1.89;90.85
57000;BME280;42891;50.006;21.964;2023-01-31T10:34:32;98601.16;;;1.95;90.90
57000;BME280;42891;50.006;21.964;2023-01-31T10:38:44;98622.47;;;2.16;90.90
57000;BME280;42891;50.006;21.964;2023-01-31T10:42:59;98625.50;;;1.94;90.46
57000;BME280;42891;50.006;21.964;2023-01-31T10:47:07;98605.72;;;1.92;90.55
57000;BME280;42891;50.006;21.964;2023-01-31T10:59:45;98614.25;;;2.08;89.41
57000;BME280;42891;50.006;21.964;2023-01-31T11:03:52;98608.47;;;1.88;89.18
57000;BME280;42891;50.006;21.964;2023-01-31T11:07:55;98609.25;;;2.05;89.29
57000;BME280;42891;50.006;21.964;2023-01-31T11:12:01;98638.75;;;2.06;89.12
57000;BME280;42891;50.006;21.964;2023-01-31T11:16:03;98647.38;;;2.06;88.06
57000;BME280;42891;50.006;21.964;2023-01-31T11:20:06;98638.75;;;2.06;87.91
57000;BME280;42891;50.006;21.964;2023-01-31T11:24:26;98605.63;;;1.93;87.39
57000;BME280;42891;50.006;21.964;2023-01-31T11:28:39;98636.72;;;2.25;86.97
57000;BME280;42891;50.006;21.964;2023-01-31T11:32:42;98626.41;;;2.24;86.59
57000;BME280;42891;50.006;21.964;2023-01-31T11:36:43;98620.44;;;2.07;86.64
57000;BME280;42891;50.006;21.964;2023-01-31T11:40:47;98628.91;;;2.25;86.71
57000;BME280;42891;50.006;21.964;2023-01-31T11:45:00;98627.59;;;2.47;85.62
57000;BME280;42891;50.006;21.964;2023-01-31T11:49:09;98621.28;;;2.36;85.35
57000;BME280;42891;50.006;21.964;2023-01-31T11:53:19;98634.19;;;2.52;85.18
57000;BME280;42891;50.006;21.964;2023-01-31T11:57:30;98627.59;;;2.32;85.49
57000;BME280;42891;50.006;21.964;2023-01-31T12:01:35;98633.53;;;2.34;85.38
57000;BME280;42891;50.006;21.964;2023-01-31T12:05:45;98632.72;;;2.19;86.96
57000;BME280;42891;50.006;21.964;2023-01-31T12:09:48;98643.38;;;2.15;87.10
57000;BME280;42891;50.006;21.964;2023-01-31T12:13:51;98615.84;;;2.11;86.96
57000;BME280;42891;50.006;21.964;2023-01-31T12:17:52;98641.94;;;2.25;85.62
57000;BME280;42891;50.006;21.964;2023-01-31T12:26:32;98633.59;;;2.04;84.87
57000;BME280;42891;50.006;21.964;2023-01-31T12:30:54;98641.41;;;1.90;85.41
57000;BME280;42891;50.006;21.964;2023-01-31T12:52:51;98655.81;;;1.81;85.60
57000;BME280;42891;50.006;21.964;2023-01-31T13:01:32;98669.06;;;1.76;84.58
57000;BME280;42891;50.006;21.964;2023-01-31T13:06:06;98666.66;;;1.73;84.92
57000;BME280;42891;50.006;21.964;2023-01-31T13:10:31;98646.91;;;1.55;85.10
57000;BME280;42891;50.006;21.964;2023-01-31T13:14:46;98646.19;;;1.67;84.88
57000;BME280;42891;50.006;21.964;2023-01-31T13:18:51;98666.31;;;1.79;84.88
57000;BME280;42891;50.006;21.964;2023-01-31T13:22:55;98654.56;;;1.72;83.96
57000;BME280;42891;50.006;21.964;2023-01-31T13:27:01;98662.72;;;1.66;84.44
57000;BME280;42891;50.006;21.964;2023-01-31T13:31:04;98660.72;;;1.71;84.54
57000;BME280;42891;50.006;21.964;2023-01-31T13:35:17;98646.31;;;1.80;84.93
57000;BME280;42891;50.006;21.964;2023-01-31T13:39:24;98643.03;;;1.76;84.03
57000;BME280;42891;50.006;21.964;2023-01-31T13:43:27;98646.75;;;1.72;83.75
57000;BME280;42891;50.006;21.964;2023-01-31T13:47:31;98642.72;;;1.66;83.76
57000;BME280;42891;50.006;21.964;2023-01-31T13:51:38;98625.19;;;1.70;83.76
57000;BME280;42891;50.006;21.964;2023-01-31T13:55:44;98645.63;;;1.76;83.88
57000;BME280;42891;50.006;21.964;2023-01-31T13:59:52;98637.38;;;1.69;83.32
57000;BME280;42891;50.006;21.964;2023-01-31T14:13:18;98654.59;;;1.86;80.97
57000;BME280;42891;50.006;21.964;2023-01-31T14:25:41;98639.31;;;1.66;79.69
57000;BME280;42891;50.006;21.964;2023-01-31T14:29:42;98649.00;;;1.78;79.76
57000;BME280;42891;50.006;21.964;2023-01-31T14:33:45;98642.13;;;1.77;79.47
57000;BME280;42891;50.006;21.964;2023-01-31T14:38:01;98639.25;;;1.82;79.18
57000;BME280;42891;50.006;21.964;2023-01-31T14:42:26;98646.31;;;1.80;78.73
57000;BME280;42891;50.006;21.964;2023-01-31T14:51:06;98659.75;;;1.72;78.48
57000;BME280;42891;50.006;21.964;2023-01-31T14:59:24;98658.31;;;1.52;78.30
57000;BME280;42891;50.006;21.964;2023-01-31T15:03:37;98660.81;;;1.53;77.85
57000;BME280;42891;50.006;21.964;2023-01-31T15:12:00;98654.56;;;1.42;77.83
57000;BME280;42891;50.006;21.964;2023-01-31T15:16:33;98655.72;;;1.52;78.51
57000;BME280;42891;50.006;21.964;2023-01-31T15:20:41;98656.06;;;1.46;78.63
57000;BME280;42891;50.006;21.964;2023-01-31T15:24:45;98647.00;;;1.37;77.67
57000;BME280;42891;50.006;21.964;2023-01-31T15:28:48;98662.09;;;1.46;77.57
57000;BME280;42891;50.006;21.964;2023-01-31T15:32:55;98662.38;;;1.42;78.29
57000;BME280;42891;50.006;21.964;2023-01-31T15:37:13;98662.09;;;1.30;78.52
57000;BME280;42891;50.006;21.964;2023-01-31T15:45:24;98650.38;;;1.39;78.43
57000;BME280;42891;50.006;21.964;2023-01-31T15:49:32;98651.19;;;1.40;78.00
57000;BME280;42891;50.006;21.964;2023-01-31T15:53:33;98648.47;;;1.27;78.37
57000;BME280;42891;50.006;21.964;2023-01-31T15:57:40;98617.84;;;1.16;78.60
57000;BME280;42891;50.006;21.964;2023-01-31T16:01:48;98624.91;;;1.14;78.30
57000;BME280;42891;50.006;21.964;2023-01-31T16:05:51;98635.03;;;1.18;77.96
57000;BME280;42891;50.006;21.964;2023-01-31T16:09:54;98624.13;;;1.28;76.98
57000;BME280;42891;50.006;21.964;2023-01-31T16:13:56;98635.63;;;1.54;76.11
57000;BME280;42891;50.006;21.964;2023-01-31T16:18:00;98614.38;;;1.31;75.24
57000;BME280;42891;50.006;21.964;2023-01-31T16:22:02;98625.19;;;1.40;74.91
57000;BME280;42891;50.006;21.964;2023-01-31T16:30:14;98604.09;;;1.14;74.66
57000;BME280;42891;50.006;21.964;2023-01-31T16:34:31;98616.41;;;1.10;74.33
57000;BME280;42891;50.006;21.964;2023-01-31T16:38:32;98625.56;;;1.17;75.24
57000;BME280;42891;50.006;21.964;2023-01-31T16:42:34;98624.19;;;1.26;75.26
57000;BME280;42891;50.006;21.964;2023-01-31T16:46:38;98621.44;;;1.29;75.82
57000;BME280;42891;50.006;21.964;2023-01-31T16:50:38;98623.44;;;1.24;76.46
57000;BME280;42891;50.006;21.964;2023-01-31T16:55:00;98591.41;;;1.24;77.49
57000;BME280;42891;50.006;21.964;2023-01-31T16:59:00;98607.66;;;1.43;76.95
57000;BME280;42891;50.006;21.964;2023-01-31T17:03:01;98621.25;;;1.32;77.42
57000;BME280;42891;50.006;21.964;2023-01-31T17:07:06;98620.50;;;1.30;77.83
57000;BME280;42891;50.006;21.964;2023-01-31T17:11:11;98634.59;;;1.42;77.61
57000;BME280;42891;50.006;21.964;2023-01-31T17:15:14;98634.44;;;1.29;77.87
57000;BME280;42891;50.006;21.964;2023-01-31T17:19:14;98633.75;;;1.26;77.95
57000;BME280;42891;50.006;21.964;2023-01-31T17:23:16;98638.41;;;1.05;77.77
57000;BME280;42891;50.006;21.964;2023-01-31T17:27:18;98628.75;;;1.07;78.55
57000;BME280;42891;50.006;21.964;2023-01-31T17:31:21;98638.09;;;1.41;77.98
57000;BME280;42891;50.006;21.964;2023-01-31T17:35:33;98637.88;;;1.30;78.28
57000;BME280;42891;50.006;21.964;2023-01-31T17:39:34;98634.91;;;1.36;78.93
57000;BME280;42891;50.006;21.964;2023-01-31T17:43:34;98634.41;;;1.45;78.67
57000;BME280;42891;50.006;21.964;2023-01-31T17:47:34;98629.97;;;1.31;79.41
57000;BME280;42891;50.006;21.964;2023-01-31T17:51:35;98638.63;;;1.32;79.08
57000;BME280;42891;50.006;21.964;2023-01-31T17:55:35;98633.81;;;1.40;78.50
57000;BME280;42891;50.006;21.964;2023-01-31T17:59:36;98603.78;;;1.34;78.44
57000;BME280;42891;50.006;21.964;2023-01-31T18:03:36;98595.66;;;1.41;78.73
57000;BME280;42891;50.006;21.964;2023-01-31T18:07:37;98608.75;;;1.39;78.94
57000;BME280;42891;50.006;21.964;2023-01-31T18:11:37;98608.03;;;1.51;78.51
57000;BME280;42891;50.006;21.964;2023-01-31T18:15:37;98604.28;;;1.41;79.23
57000;BME280;42891;50.006;21.964;2023-01-31T18:19:39;98602.06;;;1.49;79.17
57000;BME280;42891;50.006;21.964;2023-01-31T18:23:39;98596.75;;;1.36;79.25
57000;BME280;42891;50.006;21.964;2023-01-31T18:27:40;98587.34;;;1.34;78.94
57000;BME280;42891;50.006;21.964;2023-01-31T18:31:41;98584.72;;;1.19;79.86
57000;BME280;42891;50.006;21.964;2023-01-31T18:35:41;98584.94;;;1.31;80.74
57000;BME280;42891;50.006;21.964;2023-01-31T18:39:41;98605.53;;;1.19;81.54
57000;BME280;42891;50.006;21.964;2023-01-31T18:43:42;98588.41;;;0.99;83.39
57000;BME280;42891;50.006;21.964;2023-01-31T18:47:42;98598.41;;;1.07;86.41
57000;BME280;42891;50.006;21.964;2023-01-31T18:51:42;98597.75;;;0.88;88.74
57000;BME280;42891;50.006;21.964;2023-01-31T18:55:43;98601.81;;;1.08;88.87
57000;BME280;42891;50.006;21.964;2023-01-31T18:59:43;98596.13;;;1.01;89.89
57000;BME280;42891;50.006;21.964;2023-01-31T19:03:45;98594.94;;;1.23;89.72
57000;BME280;42891;50.006;21.964;2023-01-31T19:07:46;98578.34;;;1.09;90.08
57000;BME280;42891;50.006;21.964;2023-01-31T19:11:47;98575.25;;;1.02;90.80
57000;BME280;42891;50.006;21.964;2023-01-31T19:15:47;98571.84;;;1.16;92.13
57000;BME280;42891;50.006;21.964;2023-01-31T19:19:48;98561.31;;;1.04;93.07
57000;BME280;42891;50.006;21.964;2023-01-31T19:23:50;98556.94;;;1.20;93.02
57000;BME280;42891;50.006;21.964;2023-01-31T19:27:50;98557.94;;;1.17;93.31
57000;BME280;42891;50.006;21.964;2023-01-31T19:31:52;98514.03;;;0.97;93.55
57000;BME280;42891;50.006;21.964;2023-01-31T19:35:53;98524.03;;;0.89;94.77
57000;BME280;42891;50.006;21.964;2023-01-31T19:39:53;98543.94;;;0.74;96.30
57000;BME280;42891;50.006;21.964;2023-01-31T19:43:56;98531.91;;;0.87;96.21
57000;BME280;42891;50.006;21.964;2023-01-31T19:47:58;98527.97;;;0.80;96.96
57000;BME280;42891;50.006;21.964;2023-01-31T19:51:59;98503.81;;;0.47;97.38
57000;BME280;42891;50.006;21.964;2023-01-31T19:55:59;98514.25;;;0.78;97.65
57000;BME280;42891;50.006;21.964;2023-01-31T19:59:59;98512.56;;;0.77;97.92
57000;BME280;42891;50.006;21.964;2023-01-31T20:04:00;98517.50;;;0.81;97.63
57000;BME280;42891;50.006;21.964;2023-01-31T20:08:00;98507.69;;;0.71;97.92
57000;BME280;42891;50.006;21.964;2023-01-31T20:12:00;98484.19;;;0.58;98.63
57000;BME280;42891;50.006;21.964;2023-01-31T20:16:05;98488.53;;;0.57;98.53
57000;BME280;42891;50.006;21.964;2023-01-31T20:20:07;98491.97;;;0.74;98.60
57000;BME280;42891;50.006;21.964;2023-01-31T20:24:07;98489.38;;;0.74;98.22
57000;BME280;42891;50.006;21.964;2023-01-31T20:28:08;98491.19;;;0.72;97.86
57000;BME280;42891;50.006;21.964;2023-01-31T20:32:08;98485.66;;;0.78;97.45
57000;BME280;42891;50.006;21.964;2023-01-31T20:36:11;98482.44;;;0.89;96.74
57000;BME280;42891;50.006;21.964;2023-01-31T20:40:11;98464.88;;;0.78;96.59
57000;BME280;42891;50.006;21.964;2023-01-31T20:44:11;98461.00;;;0.69;96.50
57000;BME280;42891;50.006;21.964;2023-01-31T20:48:12;98468.69;;;0.87;96.06
57000;BME280;42891;50.006;21.964;2023-01-31T20:52:12;98464.94;;;0.76;95.40
57000;BME280;42891;50.006;21.964;2023-01-31T20:56:12;98453.53;;;0.79;96.02
57000;BME280;42891;50.006;21.964;2023-01-31T21:00:13;98462.19;;;0.79;95.16
57000;BME280;42891;50.006;21.964;2023-01-31T21:04:13;98450.69;;;0.83;95.54
57000;BME280;42891;50.006;21.964;2023-01-31T21:08:14;98430.00;;;0.82;95.79
57000;BME280;42891;50.006;21.964;2023-01-31T21:12:14;98424.69;;;0.83;95.13
57000;BME280;42891;50.006;21.964;2023-01-31T21:16:14;98436.94;;;0.81;95.45
57000;BME280;42891;50.006;21.964;2023-01-31T21:20:15;98430.84;;;0.97;94.63
57000;BME280;42891;50.006;21.964;2023-01-31T21:24:16;98427.06;;;0.72;96.13
57000;BME280;42891;50.006;21.964;2023-01-31T21:28:16;98416.34;;;0.62;96.03
57000;BME280;42891;50.006;21.964;2023-01-31T21:32:16;98417.03;;;0.66;96.14
57000;BME280;42891;50.006;21.964;2023-01-31T21:36:22;98412.97;;;0.76;96.34
57000;BME280;42891;50.006;21.964;2023-01-31T21:40:23;98415.25;;;0.66;96.61
57000;BME280;42891;50.006;21.964;2023-01-31T21:44:23;98413.91;;;0.75;96.62
57000;BME280;42891;50.006;21.964;2023-01-31T21:48:24;98414.50;;;0.95;95.83
57000;BME280;42891;50.006;21.964;2023-01-31T21:52:31;98402.81;;;1.02;95.11
57000;BME280;42891;50.006;21.964;2023-01-31T21:56:31;98395.13;;;1.15;94.68
57000;BME280;42891;50.006;21.964;2023-01-31T22:00:31;98388.47;;;1.25;94.64
57000;BME280;42891;50.006;21.964;2023-01-31T22:04:31;98361.69;;;1.09;94.82
57000;BME280;42891;50.006;21.964;2023-01-31T22:08:32;98363.38;;;1.10;95.05
57000;BME280;42891;50.006;21.964;2023-01-31T22:12:32;98350.28;;;1.11;95.63
57000;BME280;42891;50.006;21.964;2023-01-31T22:16:33;98362.91;;;1.17;95.72
57000;BME280;42891;50.006;21.964;2023-01-31T22:20:35;98343.38;;;0.81;96.90
57000;BME280;42891;50.006;21.964;2023-01-31T22:24:35;98338.94;;;0.98;96.71
57000;BME280;42891;50.006;21.964;2023-01-31T22:28:35;98325.66;;;0.88;97.34
57000;BME280;42891;50.006;21.964;2023-01-31T22:32:35;98348.75;;;0.93;97.65
57000;BME280;42891;50.006;21.964;2023-01-31T22:36:36;98330.28;;;0.68;97.94
57000;BME280;42891;50.006;21.964;2023-01-31T22:40:36;98320.88;;;0.52;98.85
57000;BME280;42891;50.006;21.964;2023-01-31T22:44:42;98319.22;;;0.65;99.62
57000;BME280;42891;50.006;21.964;2023-01-31T22:48:42;98316.06;;;0.74;99.02
57000;BME280;42891;50.006;21.964;2023-01-31T22:52:42;98285.44;;;0.50;99.73
57000;BME280;42891;50.006;21.964;2023-01-31T22:56:43;98314.31;;;0.75;99.70
57000;BME280;42891;50.006;21.964;2023-01-31T23:00:44;98306.47;;;0.46;99.93
57000;BME280;42891;50.006;21.964;2023-01-31T23:04:45;98302.94;;;0.47;100.00
57000;BME280;42891;50.006;21.964;2023-01-31T23:08:45;98254.16;;;0.38;100.00
57000;BME280;42891;50.006;21.964;2023-01-31T23:12:46;98284.88;;;0.60;100.00